This is the latest recevied weather packets stored in our database for station/object SP4MAZ-13. If no packets are shown the sender has not sent any weather packets the latest 10 day(s).
| Time | Temp. | Humidity | Pressure | Rain* | Wind** | Luminosity | Snow |
|---|---|---|---|---|---|---|---|
| 1777713131 | 21.67° C | 30% | 2147.4 hPa | - | - | - | - |
| 1777712828 | 21.11° C | 33% | 2147.4 hPa | - | - | - | - |
| 1777712524 | 22.22° C | 29% | 2147.4 hPa | - | - | - | - |
| 1777712221 | 21.67° C | 30% | 2147.4 hPa | - | - | - | - |
| 1777711918 | 21.11° C | 31% | 2147.4 hPa | - | - | - | - |
| 1777711614 | 21.11° C | 33% | 2147.4 hPa | - | - | - | - |
| 1777711311 | 21.11° C | 31% | 2147.4 hPa | - | - | - | - |
| 1777711007 | 20.56° C | 34% | 2147.4 hPa | - | - | - | - |
| 1777710706 | 20° C | 37% | 2147.4 hPa | - | - | - | - |
| 1777710403 | 20° C | 36% | 2147.4 hPa | - | - | - | - |
| 1777710100 | 20.56° C | 32% | 2147.4 hPa | - | - | - | - |
| 1777709796 | 20° C | 34% | 2147.4 hPa | - | - | - | - |
| 1777709493 | 20° C | 38% | 2147.4 hPa | - | - | - | - |
| 1777709189 | 19.44° C | 35% | 2147.4 hPa | - | - | - | - |
| 1777708886 | 20° C | 33% | 2147.4 hPa | - | - | - | - |
| 1777708583 | 19.44° C | 36% | 2147.4 hPa | - | - | - | - |
| 1777708279 | 20° C | 33% | 2147.4 hPa | - | - | - | - |
| 1777707978 | 20° C | 35% | 2147.4 hPa | - | - | - | - |
| 1777707677 | 19.44° C | 35% | 2147.4 hPa | - | - | - | - |
| 1777707374 | 18.89° C | 38% | 2147.4 hPa | - | - | - | - |
| 1777707070 | 17.78° C | 41% | 2147.4 hPa | - | - | - | - |
| 1777706766 | 17.78° C | 43% | 2147.4 hPa | - | - | - | - |
| 1777706463 | 19.44° C | 37% | 2147.4 hPa | - | - | - | - |
| 1777706159 | 19.44° C | 38% | 2147.4 hPa | - | - | - | - |
| 1777705855 | 18.89° C | 38% | 2147.4 hPa | - | - | - | - |
* Rain since midnight (hover to see other rain measurements)
** Current wind speed in m/s (hover to see current wind gust speed)